createdAt,value
2019-01-29T00:00:56.644Z,101065.34
2019-01-29T00:03:26.031Z,101069.25
2019-01-29T00:05:55.388Z,101065.88
2019-01-29T00:08:24.772Z,101060.34
2019-01-29T00:10:54.148Z,101057.77
2019-01-29T00:13:23.490Z,101047.45
2019-01-29T00:15:52.880Z,101047.45
2019-01-29T00:18:22.255Z,101044.92
2019-01-29T00:20:51.619Z,101043.20
2019-01-29T00:23:20.955Z,101044.49
2019-01-29T00:25:50.328Z,101038.52
2019-01-29T00:28:19.664Z,101033.36
2019-01-29T00:30:49.041Z,101027.30
2019-01-29T00:33:18.435Z,101022.57
2019-01-29T00:35:47.759Z,101024.72
2019-01-29T00:38:17.153Z,101019.99
2019-01-29T00:40:46.549Z,101011.82
2019-01-29T00:43:15.894Z,101004.08
2019-01-29T00:45:45.258Z,101004.50
2019-01-29T00:48:14.648Z,101004.89
2019-01-29T00:50:43.982Z,100999.30
2019-01-29T00:53:13.358Z,100991.55
2019-01-29T00:55:42.733Z,100991.55
2019-01-29T00:58:12.095Z,100979.94
2019-01-29T01:00:41.437Z,100969.63
2019-01-29T01:03:10.806Z,100970.87
2019-01-29T01:05:40.178Z,100964.86
2019-01-29T01:08:09.559Z,100953.72
2019-01-29T01:10:38.981Z,100953.23
2019-01-29T01:13:08.351Z,100945.52
2019-01-29T01:15:37.739Z,100933.91
2019-01-29T01:18:07.184Z,100929.16
2019-01-29T01:20:36.464Z,100929.59
2019-01-29T01:23:05.854Z,100933.91
2019-01-29T01:25:35.218Z,100927.88
2019-01-29T01:28:04.569Z,100927.02
2019-01-29T01:30:33.917Z,100929.59
2019-01-29T01:33:03.305Z,100924.87
2019-01-29T01:35:32.675Z,100930.88
2019-01-29T01:38:02.015Z,100934.27
2019-01-29T01:40:31.401Z,100936.84
2019-01-29T01:43:00.736Z,100931.69
2019-01-29T01:45:32.143Z,100933.39
2019-01-29T01:48:01.503Z,100930.34
2019-01-29T01:50:30.852Z,100932.10
2019-01-29T01:53:00.215Z,100929.95
2019-01-29T01:55:29.571Z,100924.36
2019-01-29T01:57:58.915Z,100909.75
2019-01-29T02:00:28.289Z,100902.02
2019-01-29T02:02:57.689Z,100895.59
2019-01-29T02:05:27.015Z,100887.46
2019-01-29T02:07:56.330Z,100874.58
2019-01-29T02:10:28.230Z,100865.16
2019-01-29T02:12:57.800Z,100856.59
2019-01-29T02:15:27.240Z,100863.03
2019-01-29T02:17:56.613Z,100862.66
2019-01-29T02:20:25.992Z,100863.56
2019-01-29T02:22:55.336Z,100866.21
2019-01-29T02:25:24.718Z,100853.81
2019-01-29T02:27:54.038Z,100846.58
2019-01-29T02:30:24.629Z,100839.77
2019-01-29T02:32:53.976Z,100836.80
2019-01-29T02:35:23.408Z,100828.69
2019-01-29T02:37:52.700Z,100817.95
2019-01-29T02:40:27.757Z,100823.98
2019-01-29T02:42:57.109Z,100830.41
2019-01-29T02:45:26.856Z,100817.59
2019-01-29T02:47:56.211Z,100814.16
2019-01-29T02:50:25.557Z,100816.78
2019-01-29T02:52:54.937Z,100809.06
2019-01-29T02:55:24.287Z,100803.95
2019-01-29T02:57:53.626Z,100804.44
2019-01-29T03:00:24.989Z,100795.43
2019-01-29T03:02:54.346Z,100789.47
2019-01-29T03:05:25.105Z,100785.67
2019-01-29T03:07:54.458Z,100777.08
2019-01-29T03:10:25.674Z,100770.69
2019-01-29T03:12:55.138Z,100767.30
2019-01-29T03:15:31.167Z,100758.30
2019-01-29T03:18:01.700Z,100754.02
2019-01-29T03:20:31.084Z,100747.67
2019-01-29T03:23:02.503Z,100742.09
2019-01-29T03:25:31.842Z,100727.05
2019-01-29T03:28:03.655Z,100724.48
2019-01-29T03:30:32.974Z,100721.91
2019-01-29T03:33:02.338Z,100710.75
2019-01-29T03:35:31.695Z,100700.88
2019-01-29T03:38:01.053Z,100692.77
2019-01-29T03:40:32.597Z,100690.19
2019-01-29T03:43:02.028Z,100681.97
2019-01-29T03:45:31.335Z,100673.82
2019-01-29T03:48:00.672Z,100665.66
2019-01-29T03:50:30.052Z,100664.37
2019-01-29T03:52:59.399Z,100656.25
2019-01-29T03:55:28.770Z,100659.21
2019-01-29T03:57:58.127Z,100645.04
2019-01-29T04:00:28.400Z,100648.47
2019-01-29T04:02:57.972Z,100644.59
2019-01-29T04:05:28.348Z,100636.80
2019-01-29T04:07:57.702Z,100623.86
2019-01-29T04:10:27.061Z,100620.41
2019-01-29T04:12:56.421Z,100611.81
2019-01-29T04:15:25.766Z,100612.20
2019-01-29T04:17:59.028Z,100600.16
2019-01-29T04:20:28.708Z,100595.86
2019-01-29T04:22:58.093Z,100590.70
2019-01-29T04:25:27.428Z,100587.26
2019-01-29T04:27:56.796Z,100577.75
2019-01-29T04:30:26.150Z,100569.95
2019-01-29T04:32:55.513Z,100569.11
2019-01-29T04:35:24.857Z,100558.36
2019-01-29T04:37:54.298Z,100553.20
2019-01-29T04:40:23.666Z,100545.48
2019-01-29T04:42:53.030Z,100541.61
2019-01-29T04:45:22.390Z,100532.56
2019-01-29T04:47:53.788Z,100531.30
2019-01-29T04:50:23.929Z,100517.97
2019-01-29T04:52:53.373Z,100514.59
2019-01-29T04:55:22.798Z,100512.90
2019-01-29T04:57:52.085Z,100503.49
2019-01-29T05:00:26.481Z,100500.94
2019-01-29T05:02:56.080Z,100499.27
2019-01-29T05:05:25.825Z,100484.70
2019-01-29T05:07:55.177Z,100481.74
2019-01-29T05:10:24.642Z,100476.97
2019-01-29T05:12:54.028Z,100479.17
2019-01-29T05:15:23.430Z,100472.72
2019-01-29T05:17:52.802Z,100462.91
2019-01-29T05:20:23.208Z,100455.56
2019-01-29T05:22:52.671Z,100442.30
2019-01-29T05:25:22.139Z,100431.98
2019-01-29T05:27:51.473Z,100428.13
2019-01-29T05:30:22.671Z,100428.50
2019-01-29T05:32:52.326Z,100425.91
2019-01-29T05:35:22.088Z,100418.61
2019-01-29T05:37:51.438Z,100404.44
2019-01-29T05:40:22.240Z,100407.03
2019-01-29T05:42:51.587Z,100398.87
2019-01-29T05:45:21.623Z,100389.47
2019-01-29T05:47:50.990Z,100375.67
2019-01-29T05:50:20.461Z,100371.38
2019-01-29T05:52:49.827Z,100370.50
2019-01-29T05:55:19.184Z,100367.86
2019-01-29T05:57:48.564Z,100352.41
2019-01-29T06:00:20.512Z,100357.12
2019-01-29T06:02:49.863Z,100343.38
2019-01-29T06:05:19.431Z,100331.34
2019-01-29T06:07:48.857Z,100325.75
2019-01-29T06:10:18.335Z,100328.71
2019-01-29T06:12:47.691Z,100324.03
2019-01-29T06:15:18.230Z,100318.81
2019-01-29T06:17:47.576Z,100302.50
2019-01-29T06:20:21.691Z,100299.08
2019-01-29T06:22:51.173Z,100296.47
2019-01-29T06:25:20.559Z,100289.17
2019-01-29T06:27:50.027Z,100284.44
2019-01-29T06:30:21.046Z,100278.43
2019-01-29T06:32:50.398Z,100266.77
2019-01-29T06:35:20.273Z,100263.76
2019-01-29T06:37:49.660Z,100260.73
2019-01-29T06:40:21.122Z,100253.02
2019-01-29T06:42:51.227Z,100248.23
2019-01-29T06:45:21.051Z,100241.76
2019-01-29T06:47:50.710Z,100232.30
2019-01-29T06:50:24.751Z,100229.28
2019-01-29T06:52:54.233Z,100226.23
2019-01-29T06:55:23.826Z,100214.64
2019-01-29T06:57:55.879Z,100212.03
2019-01-29T07:00:29.825Z,100204.30
2019-01-29T07:03:00.396Z,100201.28
2019-01-29T07:05:29.793Z,100181.55
2019-01-29T07:07:59.138Z,100187.11
2019-01-29T07:10:28.960Z,100186.25
2019-01-29T07:12:58.346Z,100169.94
2019-01-29T07:15:45.448Z,100181.04
2019-01-29T07:18:39.853Z,100177.17
2019-01-29T07:21:10.489Z,100167.77
2019-01-29T07:23:39.963Z,100166.48
2019-01-29T07:26:09.324Z,100160.92
2019-01-29T07:28:38.673Z,100156.17
2019-01-29T07:31:08.338Z,100153.59
2019-01-29T07:33:37.684Z,100145.87
2019-01-29T07:36:07.051Z,100144.17
2019-01-29T07:38:36.435Z,100139.02
2019-01-29T07:41:05.813Z,100132.57
2019-01-29T07:43:35.201Z,100132.57
2019-01-29T07:46:04.868Z,100127.42
2019-01-29T07:48:34.218Z,100120.12
2019-01-29T07:51:03.603Z,100123.55
2019-01-29T07:53:32.980Z,100115.82
2019-01-29T07:56:02.335Z,100115.82
2019-01-29T07:58:31.659Z,100108.09
2019-01-29T08:01:01.032Z,100108.09
2019-01-29T08:03:31.422Z,100102.94
2019-01-29T08:06:00.836Z,100101.64
2019-01-29T08:08:30.339Z,100099.51
2019-01-29T08:10:59.743Z,100097.38
2019-01-29T08:13:29.089Z,100097.78
2019-01-29T08:15:58.457Z,100099.95
2019-01-29T08:18:27.789Z,100096.08
2019-01-29T08:20:57.212Z,100091.34
2019-01-29T08:23:26.632Z,100092.19
2019-01-29T08:25:56.005Z,100085.30
2019-01-29T08:28:25.436Z,100090.39
2019-01-29T08:30:54.848Z,100083.09
2019-01-29T08:33:24.230Z,100085.23
2019-01-29T08:35:53.683Z,100088.22
2019-01-29T08:38:24.051Z,100089.06
2019-01-29T08:40:53.401Z,100086.48
2019-01-29T08:43:25.807Z,100080.48
2019-01-29T08:45:55.153Z,100077.84
2019-01-29T08:48:24.507Z,100075.27
2019-01-29T08:50:53.939Z,100067.09
2019-01-29T08:53:25.107Z,100066.66
2019-01-29T08:56:03.582Z,100064.92
2019-01-29T08:58:33.056Z,100063.16
2019-01-29T09:01:02.500Z,100057.13
2019-01-29T09:03:33.677Z,100045.93
2019-01-29T09:06:03.028Z,100045.02
2019-01-29T09:08:32.498Z,100045.42
2019-01-29T09:11:01.837Z,100043.25
2019-01-29T09:13:32.439Z,100038.47
2019-01-29T09:16:01.788Z,100034.09
2019-01-29T09:18:31.365Z,100031.98
2019-01-29T09:21:02.639Z,100031.92
2019-01-29T09:23:32.212Z,100030.56
2019-01-29T09:26:01.596Z,100024.97
2019-01-29T09:28:30.977Z,100024.93
2019-01-29T09:31:00.441Z,100021.91
2019-01-29T09:33:29.861Z,100017.56
2019-01-29T09:35:59.289Z,100013.66
2019-01-29T09:38:28.672Z,100002.06
2019-01-29T09:40:59.491Z,100000.27
2019-01-29T09:43:28.863Z,99996.39
2019-01-29T09:45:58.306Z,99996.80
2019-01-29T09:48:28.668Z,99990.36
2019-01-29T09:50:58.192Z,99992.94
2019-01-29T09:53:27.756Z,99986.86
2019-01-29T09:55:57.147Z,99986.86
2019-01-29T09:58:26.683Z,99987.67
2019-01-29T10:00:56.092Z,99982.88
2019-01-29T10:03:25.451Z,99974.27
2019-01-29T10:05:55.011Z,99973.75
2019-01-29T10:08:26.183Z,99969.00
2019-01-29T10:10:57.346Z,99964.22
2019-01-29T10:13:26.719Z,99959.39
2019-01-29T10:15:59.320Z,99959.35
2019-01-29T10:18:29.702Z,99956.70
2019-01-29T10:21:00.969Z,99949.30
2019-01-29T10:23:30.353Z,99950.55
2019-01-29T10:26:00.849Z,99952.17
2019-01-29T10:28:30.372Z,99947.41
2019-01-29T10:30:59.739Z,99946.05
2019-01-29T10:33:29.066Z,99945.98
2019-01-29T10:36:01.341Z,99945.05
2019-01-29T10:38:30.730Z,99943.77
2019-01-29T10:41:00.103Z,99938.53
2019-01-29T10:43:29.425Z,99942.80
2019-01-29T10:45:58.782Z,99938.86
2019-01-29T10:48:28.172Z,99939.70
2019-01-29T10:50:58.958Z,99932.74
2019-01-29T10:53:28.279Z,99933.52
2019-01-29T10:55:57.767Z,99931.78
2019-01-29T10:58:28.946Z,99932.11
2019-01-29T11:01:00.185Z,99930.30
2019-01-29T11:03:29.836Z,99929.41
2019-01-29T11:05:59.195Z,99925.42
2019-01-29T11:08:29.825Z,99923.25
2019-01-29T11:11:10.275Z,99920.55
2019-01-29T11:13:39.614Z,99914.03
2019-01-29T11:16:09.059Z,99914.28
2019-01-29T11:18:40.131Z,99903.03
2019-01-29T11:21:09.496Z,99907.15
2019-01-29T11:23:38.915Z,99895.02
2019-01-29T11:26:08.617Z,99886.30
2019-01-29T11:28:37.952Z,99884.05
2019-01-29T11:31:08.777Z,99880.90
2019-01-29T11:33:38.340Z,99877.35
2019-01-29T11:36:07.694Z,99870.41
2019-01-29T11:38:37.172Z,99868.16
2019-01-29T11:41:06.514Z,99859.04
2019-01-29T11:43:37.886Z,99853.80
2019-01-29T11:46:07.621Z,99847.74
2019-01-29T11:48:36.976Z,99840.84
2019-01-29T11:51:06.343Z,99838.66
2019-01-29T11:53:35.707Z,99834.27
2019-01-29T11:56:05.499Z,99834.19
2019-01-29T11:58:37.756Z,99822.12
2019-01-29T12:01:09.185Z,99819.94
2019-01-29T12:03:38.543Z,99817.72
2019-01-29T12:06:08.305Z,99811.27
2019-01-29T12:08:37.712Z,99807.39
2019-01-29T12:11:07.175Z,99801.78
2019-01-29T12:13:39.508Z,99795.78
2019-01-29T12:16:08.893Z,99791.53
2019-01-29T12:18:38.322Z,99795.78
2019-01-29T12:21:07.744Z,99782.87
2019-01-29T12:23:37.125Z,99778.18
2019-01-29T12:26:12.905Z,99765.19
2019-01-29T12:28:37.888Z,99765.64
2019-01-29T12:31:07.326Z,99759.63
2019-01-29T12:33:36.666Z,99760.42
2019-01-29T12:36:06.025Z,99754.78
2019-01-29T12:38:35.408Z,99750.86
2019-01-29T12:41:04.837Z,99747.88
2019-01-29T12:43:36.002Z,99741.06
2019-01-29T12:46:06.196Z,99739.23
2019-01-29T12:48:35.635Z,99745.25
2019-01-29T12:51:08.957Z,99740.09
2019-01-29T12:53:41.762Z,99738.84
2019-01-29T12:56:11.113Z,99737.19
2019-01-29T12:58:41.472Z,99732.52
2019-01-29T13:01:11.224Z,99720.98
2019-01-29T13:03:40.606Z,99735.71
2019-01-29T13:06:11.418Z,99740.56
2019-01-29T13:08:40.730Z,99740.37
2019-01-29T13:11:10.079Z,99734.62
2019-01-29T13:13:39.434Z,99741.20
2019-01-29T13:16:10.334Z,99742.25
2019-01-29T13:18:39.731Z,99740.82
2019-01-29T13:21:09.176Z,99733.33
2019-01-29T13:23:39.634Z,99731.03
2019-01-29T13:26:09.010Z,99741.03
2019-01-29T13:28:38.409Z,99732.58
2019-01-29T13:31:07.781Z,99735.80
2019-01-29T13:33:37.148Z,99739.39
2019-01-29T13:36:08.011Z,99733.92
2019-01-29T13:38:39.182Z,99734.44
2019-01-29T13:41:09.519Z,99728.95
2019-01-29T13:43:38.995Z,99728.11
2019-01-29T13:46:08.506Z,99737.59
2019-01-29T13:48:37.906Z,99739.72
2019-01-29T13:51:07.264Z,99738.35
2019-01-29T13:53:39.080Z,99734.11
2019-01-29T13:56:08.444Z,99744.55
2019-01-29T13:58:37.784Z,99734.28
2019-01-29T14:01:07.151Z,99727.59
2019-01-29T14:03:36.585Z,99728.44
2019-01-29T14:06:06.425Z,99724.05
2019-01-29T14:08:35.839Z,99733.47
2019-01-29T14:11:05.826Z,99725.22
2019-01-29T14:13:35.159Z,99713.53
2019-01-29T14:16:07.914Z,99702.25
2019-01-29T14:18:38.415Z,99710.45
2019-01-29T14:21:07.837Z,99706.91
2019-01-29T14:23:38.238Z,99705.98
2019-01-29T14:26:07.820Z,99701.75
2019-01-29T14:28:37.441Z,99702.97
2019-01-29T14:31:07.198Z,99721.86
2019-01-29T14:33:38.034Z,99738.11
2019-01-29T14:36:16.519Z,99748.87
2019-01-29T14:39:17.940Z,99752.73
2019-01-29T14:41:47.315Z,99753.14
2019-01-29T14:44:26.028Z,99745.40
2019-01-29T14:46:55.437Z,99759.59
2019-01-29T14:49:24.820Z,99739.72
2019-01-29T14:51:54.265Z,99743.14
2019-01-29T14:54:23.742Z,99742.25
2019-01-29T14:56:56.925Z,99737.09
2019-01-29T14:59:24.152Z,99743.91
2019-01-29T15:01:53.512Z,99737.09
2019-01-29T15:04:23.004Z,99738.75
2019-01-29T15:06:52.357Z,99740.88
2019-01-29T15:09:21.809Z,99739.15
2019-01-29T15:11:51.144Z,99733.47
2019-01-29T15:14:20.964Z,99740.23
2019-01-29T15:17:12.057Z,99740.06
2019-01-29T15:19:41.431Z,99747.68
2019-01-29T15:22:11.741Z,99743.66
2019-01-29T15:24:41.108Z,99747.03
2019-01-29T15:27:10.488Z,99750.37
2019-01-29T15:29:39.870Z,99749.08
2019-01-29T15:32:09.204Z,99752.11
2019-01-29T15:34:38.570Z,99753.84
2019-01-29T15:37:08.009Z,99754.77
2019-01-29T15:39:37.376Z,99750.37
2019-01-29T15:42:06.821Z,99759.45
2019-01-29T15:44:36.170Z,99755.58
2019-01-29T15:47:05.879Z,99754.30
2019-01-29T15:49:36.250Z,99751.27
2019-01-29T15:52:05.789Z,99748.24
2019-01-29T15:54:36.231Z,99763.33
2019-01-29T15:57:14.026Z,99752.19
2019-01-29T15:59:42.795Z,99745.34
2019-01-29T16:02:08.740Z,99743.66
2019-01-29T16:04:38.063Z,99744.94
2019-01-29T16:07:07.490Z,99761.34
2019-01-29T16:09:36.828Z,99747.48
2019-01-29T16:12:06.164Z,99744.89
2019-01-29T16:14:35.937Z,99743.16
2019-01-29T16:17:05.496Z,99744.05
2019-01-29T16:19:34.828Z,99751.80
2019-01-29T16:22:04.317Z,99760.38
2019-01-29T16:24:34.719Z,99766.06
2019-01-29T16:27:06.838Z,99767.40
2019-01-29T16:29:35.339Z,99782.36
2019-01-29T16:32:04.691Z,99763.00
2019-01-29T16:34:34.735Z,99761.27
2019-01-29T16:37:04.298Z,99764.69
2019-01-29T16:39:33.695Z,99765.59
2019-01-29T16:42:03.039Z,99761.72
2019-01-29T16:44:32.418Z,99777.67
2019-01-29T16:47:01.792Z,99778.97
2019-01-29T16:49:31.148Z,99778.97
2019-01-29T16:52:00.500Z,99793.20
2019-01-29T16:54:29.879Z,99796.22
2019-01-29T16:56:59.211Z,99787.72
2019-01-29T16:59:28.578Z,99794.24
2019-01-29T17:01:58.968Z,99792.55
2019-01-29T17:04:28.623Z,99795.25
2019-01-29T17:06:58.088Z,99795.70
2019-01-29T17:09:27.442Z,99799.65
2019-01-29T17:11:56.826Z,99785.98
2019-01-29T17:14:26.174Z,99793.24
2019-01-29T17:16:55.585Z,99791.06
2019-01-29T17:19:24.948Z,99803.45
2019-01-29T17:21:54.338Z,99807.76
2019-01-29T17:24:23.790Z,99808.60
2019-01-29T17:26:53.276Z,99807.76
2019-01-29T17:29:22.639Z,99800.53
2019-01-29T17:31:52.033Z,99809.20
2019-01-29T17:34:21.370Z,99799.33
2019-01-29T17:36:50.860Z,99804.04
2019-01-29T17:39:20.226Z,99832.78
2019-01-29T17:41:49.579Z,99826.73
2019-01-29T17:44:18.948Z,99827.59
2019-01-29T17:46:48.321Z,99836.66
2019-01-29T17:49:17.674Z,99831.17
2019-01-29T17:51:47.040Z,99828.78
2019-01-29T17:54:16.414Z,99840.52
2019-01-29T17:56:45.772Z,99844.45
2019-01-29T17:59:15.212Z,99839.74
2019-01-29T18:01:44.629Z,99839.34
2019-01-29T18:04:13.993Z,99834.63
2019-01-29T18:06:43.391Z,99839.34
2019-01-29T18:09:12.774Z,99833.34
2019-01-29T18:11:42.166Z,99835.07
2019-01-29T18:14:11.573Z,99832.56
2019-01-29T18:16:40.943Z,99843.33
2019-01-29T18:19:10.317Z,99841.08
2019-01-29T18:21:39.760Z,99830.83
2019-01-29T18:24:09.178Z,99846.23
2019-01-29T18:26:38.613Z,99848.77
2019-01-29T18:29:08.190Z,99850.91
2019-01-29T18:31:37.587Z,99846.12
2019-01-29T18:34:07.024Z,99849.09
2019-01-29T18:36:42.560Z,99858.05
2019-01-29T18:39:12.015Z,99853.73
2019-01-29T18:41:41.397Z,99856.23
2019-01-29T18:44:10.956Z,99852.00
2019-01-29T18:46:46.510Z,99847.28
2019-01-29T18:49:15.904Z,99850.71
2019-01-29T18:51:45.309Z,99852.89
2019-01-29T18:54:14.667Z,99851.67
2019-01-29T18:56:43.994Z,99855.14
2019-01-29T18:59:13.391Z,99853.97
2019-01-29T19:01:42.776Z,99859.13
2019-01-29T19:04:12.159Z,99861.78
2019-01-29T19:06:41.689Z,99865.66
2019-01-29T19:09:11.194Z,99858.80
2019-01-29T19:11:40.603Z,99863.96
2019-01-29T19:14:09.976Z,99895.31
2019-01-29T19:16:39.368Z,99865.58
2019-01-29T19:19:08.737Z,99878.55
2019-01-29T19:21:38.181Z,99875.45
2019-01-29T19:24:07.593Z,99883.63
2019-01-29T19:26:36.941Z,99874.60
2019-01-29T19:29:06.780Z,99888.34
2019-01-29T19:31:36.185Z,99887.39
2019-01-29T19:34:05.567Z,99880.09
2019-01-29T19:36:34.949Z,99906.73
2019-01-29T19:39:05.826Z,99916.53
2019-01-29T19:41:35.192Z,99917.27
2019-01-29T19:44:04.708Z,99903.92
2019-01-29T19:46:34.108Z,99910.77
2019-01-29T19:49:03.456Z,99917.67
2019-01-29T19:51:32.854Z,99910.81
2019-01-29T19:54:02.300Z,99928.88
2019-01-29T19:56:31.667Z,99928.02
2019-01-29T19:59:01.028Z,99929.72
2019-01-29T20:01:30.401Z,99939.63
2019-01-29T20:03:59.756Z,99938.42
2019-01-29T20:06:30.998Z,99937.64
2019-01-29T20:09:00.215Z,99937.75
2019-01-29T20:11:29.530Z,99937.80
2019-01-29T20:13:58.959Z,99935.29
2019-01-29T20:16:28.299Z,99938.38
2019-01-29T20:18:57.652Z,99931.94
2019-01-29T20:21:27.036Z,99929.47
2019-01-29T20:23:56.399Z,99928.62
2019-01-29T20:26:25.818Z,99933.01
2019-01-29T20:28:55.205Z,99926.23
2019-01-29T20:31:24.568Z,99931.87
2019-01-29T20:33:53.946Z,99922.07
2019-01-29T20:36:23.301Z,99922.07
2019-01-29T20:38:52.708Z,99928.07
2019-01-29T20:41:22.059Z,99920.34
2019-01-29T20:43:53.473Z,99909.58
2019-01-29T20:46:22.853Z,99916.03
2019-01-29T20:48:52.237Z,99914.27
2019-01-29T20:51:21.586Z,99905.64
2019-01-29T20:53:50.975Z,99909.06
2019-01-29T20:56:20.315Z,99906.89
2019-01-29T20:58:52.670Z,99901.66
2019-01-29T21:01:20.778Z,99900.37
2019-01-29T21:03:50.141Z,99903.80
2019-01-29T21:06:20.446Z,99902.95
2019-01-29T21:08:49.811Z,99899.52
2019-01-29T21:11:19.165Z,99900.88
2019-01-29T21:13:48.513Z,99900.04
2019-01-29T21:16:17.893Z,99895.73
2019-01-29T21:18:48.375Z,99897.39
2019-01-29T21:21:17.731Z,99891.34
2019-01-29T21:23:49.052Z,99892.63
2019-01-29T21:26:18.186Z,99889.20
2019-01-29T21:28:47.518Z,99892.56
2019-01-29T21:31:16.998Z,99901.59
2019-01-29T21:33:46.369Z,99918.23
2019-01-29T21:36:15.727Z,99937.32
2019-01-29T21:38:45.087Z,99941.37
2019-01-29T21:41:14.430Z,99945.88
2019-01-29T21:43:43.792Z,99950.25
2019-01-29T21:46:13.135Z,99948.16
2019-01-29T21:48:42.504Z,99938.67
2019-01-29T21:51:11.895Z,99921.76
2019-01-29T21:53:41.261Z,99910.44
2019-01-29T21:56:10.641Z,99905.94
2019-01-29T21:58:39.992Z,99915.99
2019-01-29T22:01:09.357Z,99916.16
2019-01-29T22:03:38.713Z,99912.00
2019-01-29T22:06:08.064Z,99913.45
2019-01-29T22:08:37.395Z,99906.23
2019-01-29T22:11:06.756Z,99909.69
2019-01-29T22:13:36.109Z,99918.25
2019-01-29T22:16:05.489Z,99912.13
2019-01-29T22:18:34.848Z,99921.51
2019-01-29T22:21:04.190Z,99920.97
2019-01-29T22:23:33.572Z,99907.56
2019-01-29T22:26:02.935Z,99906.61
2019-01-29T22:28:32.274Z,99910.03
2019-01-29T22:31:01.649Z,99906.98
2019-01-29T22:33:31.015Z,99909.09
2019-01-29T22:36:00.383Z,99912.88
2019-01-29T22:38:29.714Z,99908.52
2019-01-29T22:40:59.086Z,99898.62
2019-01-29T22:43:28.431Z,99899.84
2019-01-29T22:45:57.805Z,99901.09
2019-01-29T22:48:27.168Z,99896.31
2019-01-29T22:50:56.499Z,99891.64
2019-01-29T22:53:25.876Z,99898.00
2019-01-29T22:55:55.212Z,99900.14
2019-01-29T22:58:24.580Z,99894.04
2019-01-29T23:01:27.252Z,99893.94
2019-01-29T23:04:29.116Z,99897.19
2019-01-29T23:07:21.685Z,99896.64
2019-01-29T23:09:51.018Z,99900.40
2019-01-29T23:12:20.389Z,99901.18
2019-01-29T23:14:49.754Z,99895.84
2019-01-29T23:17:19.083Z,99886.39
2019-01-29T23:19:48.441Z,99893.95
2019-01-29T23:22:17.872Z,99892.63
2019-01-29T23:24:47.241Z,99888.65
2019-01-29T23:27:16.950Z,99886.84
2019-01-29T23:29:46.316Z,99891.89
2019-01-29T23:32:15.683Z,99894.41
2019-01-29T23:34:45.072Z,99886.16
2019-01-29T23:37:14.415Z,99880.12
2019-01-29T23:39:43.771Z,99874.52
2019-01-29T23:42:13.134Z,99875.37
2019-01-29T23:44:42.497Z,99870.59
2019-01-29T23:47:11.834Z,99877.84
2019-01-29T23:49:41.175Z,99874.34
2019-01-29T23:52:10.529Z,99876.88
2019-01-29T23:54:39.874Z,99874.64
2019-01-29T23:57:09.237Z,99872.83
2019-01-29T23:59:38.563Z,99877.47
